createdAt,value
2023-11-16T00:00:48.365Z,3.27
2023-11-16T00:03:15.052Z,2.50
2023-11-16T00:05:45.330Z,2.73
2023-11-16T00:08:11.969Z,2.57
2023-11-16T00:10:40.745Z,3.10
2023-11-16T00:13:07.418Z,3.70
2023-11-16T00:15:34.447Z,3.13
2023-11-16T00:18:04.603Z,2.70
2023-11-16T00:20:31.712Z,2.70
2023-11-16T00:22:58.130Z,2.67
2023-11-16T00:25:24.582Z,2.90
2023-11-16T00:27:51.503Z,3.13
2023-11-16T00:30:17.978Z,3.00
2023-11-16T00:32:44.537Z,2.97
2023-11-16T00:35:11.934Z,2.30
2023-11-16T00:37:38.542Z,2.70
2023-11-16T00:40:06.231Z,2.87
2023-11-16T00:42:32.887Z,3.63
2023-11-16T00:44:59.352Z,3.80
2023-11-16T00:47:25.893Z,3.93
2023-11-16T00:49:52.451Z,3.43
2023-11-16T00:52:21.245Z,3.30
2023-11-16T00:54:49.855Z,3.60
2023-11-16T00:57:19.267Z,3.20
2023-11-16T00:59:48.781Z,3.57
2023-11-16T01:02:15.493Z,3.40
2023-11-16T01:04:42.603Z,3.73
2023-11-16T01:07:11.661Z,2.90
2023-11-16T01:09:39.378Z,2.67
2023-11-16T01:12:12.887Z,3.43
2023-11-16T01:14:41.145Z,3.30
2023-11-16T01:17:13.074Z,3.07
2023-11-16T01:19:46.439Z,2.43
2023-11-16T01:22:16.364Z,3.30
2023-11-16T01:24:45.898Z,3.50
2023-11-16T01:27:28.075Z,2.97
2023-11-16T01:29:54.949Z,3.57
2023-11-16T01:32:21.876Z,2.73
2023-11-16T01:34:48.420Z,3.23
2023-11-16T01:37:14.965Z,3.13
2023-11-16T01:39:42.084Z,3.43
2023-11-16T01:42:10.557Z,3.13
2023-11-16T01:44:37.887Z,3.83
2023-11-16T01:47:09.503Z,3.87
2023-11-16T01:49:36.849Z,2.80
2023-11-16T01:52:05.206Z,2.87
2023-11-16T01:54:33.035Z,3.20
2023-11-16T01:57:00.286Z,3.30
2023-11-16T01:59:29.147Z,2.93
2023-11-16T02:01:57.933Z,3.43
2023-11-16T02:04:25.097Z,2.97
2023-11-16T02:06:52.779Z,2.60
2023-11-16T02:09:21.095Z,3.17
2023-11-16T02:11:47.511Z,3.10
2023-11-16T02:14:14.179Z,2.70
2023-11-16T02:16:41.188Z,2.83
2023-11-16T02:19:32.283Z,3.07
2023-11-16T02:22:00.333Z,2.80
2023-11-16T02:24:27.598Z,2.90
2023-11-16T02:26:54.950Z,2.73
2023-11-16T02:29:21.422Z,2.90
2023-11-16T02:31:47.891Z,2.93
2023-11-16T02:34:14.446Z,3.10
2023-11-16T02:36:41.377Z,3.23
2023-11-16T02:39:08.461Z,3.63
2023-11-16T02:41:35.498Z,3.33
2023-11-16T02:44:03.744Z,3.40
2023-11-16T02:46:30.210Z,2.70
2023-11-16T02:48:57.259Z,2.97
2023-11-16T02:51:23.722Z,2.50
2023-11-16T02:53:50.365Z,3.20
2023-11-16T02:56:18.049Z,3.30
2023-11-16T02:58:45.158Z,2.90
2023-11-16T03:01:13.930Z,3.17
2023-11-16T03:03:41.530Z,2.67
2023-11-16T03:06:08.380Z,2.60
2023-11-16T03:08:34.932Z,3.47
2023-11-16T03:11:03.998Z,3.03
2023-11-16T03:13:30.458Z,3.60
2023-11-16T03:15:56.888Z,2.97
2023-11-16T03:18:23.365Z,3.27
2023-11-16T03:20:49.855Z,3.53
2023-11-16T03:23:16.968Z,3.10
2023-11-16T03:25:44.105Z,3.13
2023-11-16T03:28:10.565Z,3.20
2023-11-16T03:30:38.022Z,3.00
2023-11-16T03:33:04.971Z,3.37
2023-11-16T03:35:31.644Z,3.00
2023-11-16T03:37:58.568Z,3.20
2023-11-16T03:40:25.857Z,2.53
2023-11-16T03:42:52.304Z,3.40
2023-11-16T03:45:18.774Z,2.93
2023-11-16T03:47:45.620Z,3.20
2023-11-16T03:50:12.613Z,3.33
2023-11-16T03:52:39.146Z,3.53
2023-11-16T03:55:05.859Z,2.90
2023-11-16T03:57:32.570Z,3.50
2023-11-16T03:59:59.222Z,2.50
2023-11-16T04:02:25.739Z,3.10
2023-11-16T04:04:52.741Z,3.70
2023-11-16T04:07:19.190Z,2.80
2023-11-16T04:09:45.681Z,2.73
2023-11-16T04:12:12.191Z,3.00
2023-11-16T04:14:44.605Z,3.33
2023-11-16T04:17:14.586Z,3.80
2023-11-16T04:19:41.164Z,3.10
2023-11-16T04:22:07.968Z,3.23
2023-11-16T04:24:41.014Z,3.00
2023-11-16T04:27:08.348Z,3.10
2023-11-16T04:29:35.412Z,2.73
2023-11-16T04:32:02.649Z,2.50
2023-11-16T04:34:29.222Z,3.33
2023-11-16T04:36:57.562Z,3.20
2023-11-16T04:39:24.032Z,3.03
2023-11-16T04:41:50.692Z,2.77
2023-11-16T04:44:17.145Z,2.90
2023-11-16T04:46:53.097Z,3.00
2023-11-16T04:49:21.229Z,3.23
2023-11-16T04:51:48.182Z,3.00
2023-11-16T04:54:14.675Z,3.70
2023-11-16T04:56:41.122Z,2.83
2023-11-16T04:59:09.422Z,3.20
2023-11-16T05:01:36.129Z,3.20
2023-11-16T05:04:03.472Z,3.53
2023-11-16T05:06:30.120Z,2.90
2023-11-16T05:08:56.629Z,3.20
2023-11-16T05:11:24.713Z,3.23
2023-11-16T05:13:51.788Z,4.23
2023-11-16T05:16:18.451Z,3.53
2023-11-16T05:18:45.149Z,3.57
2023-11-16T05:21:16.921Z,3.10
2023-11-16T05:23:44.512Z,3.60
2023-11-16T05:26:11.871Z,3.20
2023-11-16T05:28:38.319Z,2.90
2023-11-16T05:31:05.577Z,3.60
2023-11-16T05:33:33.308Z,3.30
2023-11-16T05:36:00.460Z,3.40
2023-11-16T05:38:26.967Z,3.60
2023-11-16T05:40:53.793Z,4.23
2023-11-16T05:43:21.176Z,3.40
2023-11-16T05:45:47.979Z,3.03
2023-11-16T05:48:15.480Z,3.47
2023-11-16T05:50:43.699Z,3.00
2023-11-16T05:53:10.887Z,3.60
2023-11-16T05:55:37.391Z,3.13
2023-11-16T05:58:06.736Z,2.90
2023-11-16T06:00:34.602Z,2.97
2023-11-16T06:03:02.743Z,3.70
2023-11-16T06:05:29.446Z,3.70
2023-11-16T06:07:56.427Z,3.40
2023-11-16T06:10:24.282Z,3.87
2023-11-16T06:12:52.644Z,3.33
2023-11-16T06:15:22.083Z,4.87
2023-11-16T06:17:48.617Z,3.93
2023-11-16T06:20:16.265Z,2.70
2023-11-16T06:22:42.707Z,2.83
2023-11-16T06:25:11.997Z,4.33
2023-11-16T06:27:39.835Z,4.60
2023-11-16T06:30:09.982Z,4.70
2023-11-16T06:32:37.856Z,4.43
2023-11-16T06:35:04.887Z,4.60
2023-11-16T06:37:33.170Z,4.50
2023-11-16T06:40:00.029Z,3.60
2023-11-16T06:42:26.732Z,4.40
2023-11-16T06:44:53.442Z,4.80
2023-11-16T06:47:20.886Z,4.10
2023-11-16T06:49:49.267Z,3.90
2023-11-16T06:52:18.075Z,3.73
2023-11-16T06:54:44.733Z,3.87
2023-11-16T06:57:12.032Z,4.33
2023-11-16T06:59:39.064Z,4.60
2023-11-16T07:02:09.062Z,5.00
2023-11-16T07:04:37.364Z,4.93
2023-11-16T07:07:04.917Z,4.73
2023-11-16T07:09:32.284Z,4.47
2023-11-16T07:12:00.658Z,4.50
2023-11-16T07:14:36.693Z,9.97
2023-11-16T07:17:12.932Z,14.93
2023-11-16T07:19:39.697Z,11.57
2023-11-16T07:22:06.711Z,5.50
2023-11-16T07:24:34.225Z,4.10
2023-11-16T07:27:02.873Z,3.50
2023-11-16T07:29:30.643Z,3.40
2023-11-16T07:31:57.278Z,3.60
2023-11-16T07:34:25.106Z,3.37
2023-11-16T07:36:51.642Z,3.40
2023-11-16T07:39:18.175Z,3.83
2023-11-16T07:41:45.961Z,3.57
2023-11-16T07:44:13.042Z,4.17
2023-11-16T07:46:40.086Z,5.10
2023-11-16T07:49:07.012Z,7.43
2023-11-16T07:51:33.939Z,4.97
2023-11-16T07:54:05.202Z,4.87
2023-11-16T07:56:32.786Z,4.00
2023-11-16T07:59:01.035Z,3.63
2023-11-16T08:01:39.967Z,3.77
2023-11-16T08:04:07.185Z,17.63
2023-11-16T08:06:36.574Z,25.33
2023-11-16T08:09:03.403Z,34.10
2023-11-16T08:11:31.169Z,39.10
2023-11-16T08:13:58.414Z,31.23
2023-11-16T08:16:25.159Z,19.50
2023-11-16T08:18:53.448Z,14.13
2023-11-16T08:21:20.494Z,12.40
2023-11-16T08:23:51.842Z,9.63
2023-11-16T08:26:20.142Z,5.67
2023-11-16T08:28:48.546Z,5.57
2023-11-16T08:31:15.955Z,5.27
2023-11-16T08:33:43.906Z,4.10
2023-11-16T08:36:14.539Z,4.80
2023-11-16T08:38:43.682Z,4.27
2023-11-16T08:41:18.330Z,4.40
2023-11-16T08:43:51.476Z,4.23
2023-11-16T08:46:26.626Z,3.70
2023-11-16T08:48:54.323Z,4.07
2023-11-16T08:51:24.434Z,5.00
2023-11-16T08:53:55.509Z,5.40
2023-11-16T08:56:27.108Z,4.20
2023-11-16T08:59:08.309Z,4.70
2023-11-16T09:01:39.541Z,4.10
2023-11-16T09:04:07.696Z,4.13
2023-11-16T09:06:35.215Z,4.83
2023-11-16T09:09:09.953Z,4.77
2023-11-16T09:11:37.210Z,4.23
2023-11-16T09:14:05.162Z,4.47
2023-11-16T09:16:32.821Z,4.03
2023-11-16T09:18:59.582Z,4.27
2023-11-16T09:21:27.532Z,4.80
2023-11-16T09:23:55.577Z,5.60
2023-11-16T09:26:22.282Z,5.63
2023-11-16T09:28:58.279Z,5.50
2023-11-16T09:31:32.575Z,5.07
2023-11-16T09:34:01.538Z,5.60
2023-11-16T09:36:30.731Z,5.03
2023-11-16T09:38:59.056Z,4.87
2023-11-16T09:41:29.755Z,5.43
2023-11-16T09:44:02.691Z,5.40
2023-11-16T09:46:32.846Z,5.00
2023-11-16T09:49:00.712Z,5.50
2023-11-16T09:51:30.452Z,5.17
2023-11-16T09:54:02.417Z,18.50
2023-11-16T09:56:36.484Z,15.33
2023-11-16T09:59:28.693Z,9.57
2023-11-16T10:02:09.796Z,8.20
2023-11-16T10:04:42.726Z,5.13
2023-11-16T10:07:17.946Z,5.03
2023-11-16T10:09:45.448Z,3.90
2023-11-16T10:12:12.699Z,4.70
2023-11-16T10:14:41.082Z,4.40
2023-11-16T10:17:08.501Z,3.70
2023-11-16T10:19:35.764Z,4.17
2023-11-16T10:22:02.780Z,4.47
2023-11-16T10:24:29.407Z,4.57
2023-11-16T10:26:56.253Z,5.37
2023-11-16T10:29:23.464Z,5.10
2023-11-16T10:31:53.091Z,4.93
2023-11-16T10:34:24.679Z,4.40
2023-11-16T10:36:56.341Z,4.13
2023-11-16T10:39:25.685Z,4.10
2023-11-16T10:41:53.240Z,3.33
2023-11-16T10:44:25.400Z,3.00
2023-11-16T10:46:52.948Z,3.77
2023-11-16T10:49:19.808Z,3.10
2023-11-16T10:51:51.477Z,3.30
2023-11-16T10:54:21.405Z,2.90
2023-11-16T10:56:53.237Z,3.80
2023-11-16T10:59:22.772Z,3.83
2023-11-16T11:01:49.440Z,3.80
2023-11-16T11:04:16.771Z,3.47
2023-11-16T11:06:43.697Z,3.67
2023-11-16T11:09:17.007Z,3.67
2023-11-16T11:11:45.481Z,3.70
2023-11-16T11:14:14.355Z,3.43
2023-11-16T11:16:41.774Z,3.73
2023-11-16T11:19:10.722Z,3.60
2023-11-16T11:21:49.111Z,3.00
2023-11-16T11:24:15.577Z,2.50
2023-11-16T11:26:49.602Z,3.67
2023-11-16T11:29:17.154Z,3.07
2023-11-16T11:32:07.136Z,3.70
2023-11-16T11:34:37.428Z,2.80
2023-11-16T11:37:08.575Z,4.20
2023-11-16T11:39:42.136Z,3.20
2023-11-16T11:42:10.592Z,3.23
2023-11-16T11:44:37.101Z,3.63
2023-11-16T11:47:05.271Z,3.20
2023-11-16T11:49:31.781Z,2.80
2023-11-16T11:52:00.872Z,3.67
2023-11-16T11:54:38.170Z,4.17
2023-11-16T11:57:06.406Z,3.40
2023-11-16T11:59:33.178Z,3.17
2023-11-16T12:02:10.322Z,3.10
2023-11-16T12:04:38.102Z,3.20
2023-11-16T12:07:09.498Z,3.27
2023-11-16T12:09:45.479Z,3.50
2023-11-16T12:12:12.403Z,3.10
2023-11-16T12:14:47.622Z,3.40
2023-11-16T12:17:16.649Z,3.50
2023-11-16T12:19:44.068Z,3.47
2023-11-16T12:22:11.929Z,3.80
2023-11-16T12:24:38.546Z,3.80
2023-11-16T12:27:06.896Z,4.23
2023-11-16T12:29:34.353Z,3.93
2023-11-16T12:32:02.749Z,3.90
2023-11-16T12:34:29.596Z,4.10
2023-11-16T12:36:56.864Z,4.40
2023-11-16T12:39:26.701Z,4.10
2023-11-16T12:41:54.821Z,4.20
2023-11-16T12:44:23.999Z,4.33
2023-11-16T12:46:51.388Z,3.57
2023-11-16T12:49:19.551Z,4.53
2023-11-16T12:51:46.014Z,3.97
2023-11-16T12:54:12.465Z,4.97
2023-11-16T12:56:39.126Z,4.50
2023-11-16T12:59:10.754Z,4.33
2023-11-16T13:01:40.258Z,4.50
2023-11-16T13:04:08.029Z,4.23
2023-11-16T13:06:34.886Z,4.80
2023-11-16T13:09:01.325Z,4.63
2023-11-16T13:11:27.929Z,5.17
2023-11-16T13:13:54.441Z,4.83
2023-11-16T13:16:21.277Z,4.60
2023-11-16T13:18:50.208Z,5.03
2023-11-16T13:21:16.769Z,4.50
2023-11-16T13:23:43.699Z,5.40
2023-11-16T13:26:11.312Z,4.53
2023-11-16T13:28:38.136Z,4.80
2023-11-16T13:31:05.055Z,4.90
2023-11-16T13:33:32.714Z,4.43
2023-11-16T13:36:00.305Z,2.73
2023-11-16T13:38:28.284Z,3.60
2023-11-16T13:40:55.132Z,3.17
2023-11-16T13:43:21.889Z,3.30
2023-11-16T13:45:48.483Z,3.17
2023-11-16T13:48:18.405Z,4.70
2023-11-16T13:50:44.980Z,3.00
2023-11-16T13:53:11.621Z,2.67
2023-11-16T13:55:38.092Z,3.47
2023-11-16T13:58:05.096Z,2.80
2023-11-16T14:00:33.144Z,2.37
2023-11-16T14:02:59.982Z,3.53
2023-11-16T14:05:26.679Z,3.43
2023-11-16T14:07:54.550Z,2.93
2023-11-16T14:10:24.803Z,3.63
2023-11-16T14:12:53.892Z,3.40
2023-11-16T14:15:21.776Z,2.90
2023-11-16T14:17:48.617Z,2.93
2023-11-16T14:20:15.131Z,3.30
2023-11-16T14:22:41.596Z,3.73
2023-11-16T14:25:08.575Z,2.90
2023-11-16T14:27:38.087Z,3.23
2023-11-16T14:30:05.736Z,3.33
2023-11-16T14:32:32.290Z,2.70
2023-11-16T14:35:14.200Z,3.47
2023-11-16T14:37:46.632Z,2.90
2023-11-16T14:40:13.781Z,3.00
2023-11-16T14:42:40.396Z,3.23
2023-11-16T14:45:07.571Z,3.00
2023-11-16T14:47:39.509Z,3.10
2023-11-16T14:50:10.108Z,3.00
2023-11-16T14:52:37.605Z,2.70
2023-11-16T14:55:08.072Z,3.27
2023-11-16T14:57:35.348Z,2.90
2023-11-16T15:00:02.662Z,3.37
2023-11-16T15:02:29.673Z,2.70
2023-11-16T15:05:04.993Z,2.70
2023-11-16T15:07:36.549Z,3.10
2023-11-16T15:10:06.605Z,2.97
2023-11-16T15:12:34.594Z,3.13
2023-11-16T15:15:01.579Z,2.70
2023-11-16T15:17:28.297Z,3.10
2023-11-16T15:19:55.088Z,2.60
2023-11-16T15:22:21.915Z,2.57
2023-11-16T15:24:48.919Z,2.13
2023-11-16T15:27:15.495Z,2.67
2023-11-16T15:29:41.999Z,2.50
2023-11-16T15:32:18.597Z,3.93
2023-11-16T15:34:45.252Z,2.70
2023-11-16T15:37:12.788Z,2.50
2023-11-16T15:39:40.070Z,2.10
2023-11-16T15:42:08.199Z,2.70
2023-11-16T15:44:34.961Z,2.50
2023-11-16T15:47:01.561Z,2.67
2023-11-16T15:49:28.524Z,3.20
2023-11-16T15:51:55.294Z,2.70
2023-11-16T15:54:21.733Z,2.30
2023-11-16T15:56:52.448Z,2.80
2023-11-16T15:59:20.434Z,3.03
2023-11-16T16:01:47.197Z,2.93
2023-11-16T16:04:13.842Z,2.13
2023-11-16T16:06:40.691Z,2.33
2023-11-16T16:09:09.260Z,8.00
2023-11-16T16:11:36.189Z,6.73
2023-11-16T16:14:02.646Z,6.43
2023-11-16T16:16:29.200Z,5.30
2023-11-16T16:18:56.784Z,5.10
2023-11-16T16:21:23.425Z,4.00
2023-11-16T16:23:50.154Z,3.73
2023-11-16T16:26:16.858Z,3.50
2023-11-16T16:28:43.689Z,3.33
2023-11-16T16:31:20.267Z,3.33
2023-11-16T16:33:46.971Z,2.83
2023-11-16T16:36:13.493Z,2.93
2023-11-16T16:38:40.235Z,3.10
2023-11-16T16:41:07.745Z,3.30
2023-11-16T16:43:34.249Z,3.20
2023-11-16T16:46:01.174Z,3.30
2023-11-16T16:48:27.915Z,3.60
2023-11-16T16:50:54.415Z,3.30
2023-11-16T16:53:21.104Z,6.20
2023-11-16T16:55:47.788Z,8.10
2023-11-16T16:58:14.430Z,8.53
2023-11-16T17:00:41.022Z,7.83
2023-11-16T17:03:07.647Z,7.10
2023-11-16T17:05:34.209Z,5.67
2023-11-16T17:08:00.755Z,4.80
2023-11-16T17:10:29.543Z,4.10
2023-11-16T17:12:56.370Z,3.23
2023-11-16T17:15:23.467Z,4.20
2023-11-16T17:17:49.938Z,3.60
2023-11-16T17:20:17.928Z,4.60
2023-11-16T17:22:44.360Z,3.37
2023-11-16T17:25:12.792Z,2.93
2023-11-16T17:27:41.357Z,3.47
2023-11-16T17:30:09.463Z,3.40
2023-11-16T17:32:36.380Z,2.77
2023-11-16T17:35:04.155Z,2.50
2023-11-16T17:37:30.630Z,2.77
2023-11-16T17:39:57.160Z,2.10
2023-11-16T17:42:23.628Z,2.33
2023-11-16T17:44:51.871Z,3.47
2023-11-16T17:47:18.275Z,2.43
2023-11-16T17:49:45.538Z,2.60
2023-11-16T17:52:12.240Z,1.90
2023-11-16T17:54:39.699Z,2.27
2023-11-16T17:57:06.361Z,1.93
2023-11-16T17:59:32.894Z,2.60
2023-11-16T18:01:59.426Z,1.93
2023-11-16T18:04:26.033Z,2.17
2023-11-16T18:06:54.320Z,2.27
2023-11-16T18:09:20.818Z,2.30
2023-11-16T18:11:48.078Z,2.00
2023-11-16T18:14:14.488Z,2.50
2023-11-16T18:16:40.919Z,2.10
2023-11-16T18:19:11.159Z,1.90
2023-11-16T18:21:37.956Z,1.73
2023-11-16T18:24:04.853Z,2.37
2023-11-16T18:26:32.996Z,1.97
2023-11-16T18:28:59.455Z,2.00
2023-11-16T18:31:26.030Z,2.03
2023-11-16T18:33:53.015Z,1.70
2023-11-16T18:36:22.522Z,1.47
2023-11-16T18:38:50.425Z,1.50
2023-11-16T18:41:17.892Z,1.50
2023-11-16T18:43:44.919Z,1.87
2023-11-16T18:46:11.550Z,1.70
2023-11-16T18:48:39.845Z,2.30
2023-11-16T18:51:06.590Z,1.50
2023-11-16T18:53:38.109Z,1.70
2023-11-16T18:56:13.073Z,1.43
2023-11-16T18:58:40.169Z,1.50
2023-11-16T19:01:07.009Z,1.43
2023-11-16T19:03:34.320Z,2.30
2023-11-16T19:06:01.733Z,1.70
2023-11-16T19:08:30.331Z,1.90
2023-11-16T19:10:56.831Z,1.63
2023-11-16T19:13:23.287Z,1.90
2023-11-16T19:15:49.716Z,1.90
2023-11-16T19:18:16.239Z,1.93
2023-11-16T19:20:42.756Z,1.80
2023-11-16T19:23:13.077Z,1.77
2023-11-16T19:25:41.054Z,1.63
2023-11-16T19:28:08.552Z,2.00
2023-11-16T19:30:35.748Z,1.70
2023-11-16T19:33:02.812Z,2.30
2023-11-16T19:35:29.316Z,2.00
2023-11-16T19:37:55.732Z,1.63
2023-11-16T19:40:30.587Z,1.30
2023-11-16T19:43:06.584Z,1.57
2023-11-16T19:45:33.409Z,1.90
2023-11-16T19:47:59.859Z,1.57
2023-11-16T19:50:26.608Z,1.37
2023-11-16T19:52:53.029Z,2.20
2023-11-16T19:55:19.492Z,2.00
2023-11-16T19:57:46.066Z,2.17
2023-11-16T20:00:17.124Z,1.97
2023-11-16T20:02:44.155Z,1.67
2023-11-16T20:05:10.928Z,1.80
2023-11-16T20:07:37.479Z,1.70
2023-11-16T20:10:07.222Z,1.87
2023-11-16T20:12:35.155Z,1.70
2023-11-16T20:15:01.823Z,1.87
2023-11-16T20:17:28.812Z,2.33
2023-11-16T20:19:57.065Z,2.10
2023-11-16T20:22:23.880Z,1.50
2023-11-16T20:24:51.062Z,2.20
2023-11-16T20:27:17.557Z,1.73
2023-11-16T20:29:44.081Z,2.23
2023-11-16T20:32:10.528Z,1.80
2023-11-16T20:34:37.357Z,1.43
2023-11-16T20:37:06.351Z,1.43
2023-11-16T20:39:35.680Z,1.70
2023-11-16T20:42:05.023Z,2.40
2023-11-16T20:44:31.853Z,1.53
2023-11-16T20:46:58.298Z,1.80
2023-11-16T20:49:25.868Z,1.20
2023-11-16T20:51:53.617Z,1.40
2023-11-16T20:54:20.049Z,1.50
2023-11-16T20:56:47.192Z,1.13
2023-11-16T20:59:14.204Z,1.37
2023-11-16T21:01:40.681Z,1.43
2023-11-16T21:04:09.032Z,1.30
2023-11-16T21:06:36.422Z,1.77
2023-11-16T21:09:10.354Z,1.70
2023-11-16T21:11:38.070Z,1.87
2023-11-16T21:14:08.062Z,1.53
2023-11-16T21:16:34.653Z,1.20
2023-11-16T21:19:01.252Z,1.20
2023-11-16T21:21:28.313Z,0.90
2023-11-16T21:23:54.836Z,1.30
2023-11-16T21:26:21.251Z,1.30
2023-11-16T21:28:48.232Z,1.60
2023-11-16T21:31:14.844Z,1.60
2023-11-16T21:33:41.319Z,1.10
2023-11-16T21:36:09.367Z,1.30
2023-11-16T21:38:35.849Z,1.10
2023-11-16T21:41:03.541Z,1.20
2023-11-16T21:43:29.950Z,1.00
2023-11-16T21:45:56.575Z,0.80
2023-11-16T21:48:23.151Z,1.10
2023-11-16T21:50:49.721Z,1.20
2023-11-16T21:53:19.629Z,1.00
2023-11-16T21:55:46.381Z,1.23
2023-11-16T21:58:12.862Z,1.40
2023-11-16T22:00:39.332Z,1.50
2023-11-16T22:03:05.855Z,0.90
2023-11-16T22:05:33.137Z,1.20
2023-11-16T22:08:00.073Z,0.93
2023-11-16T22:10:26.718Z,0.90
2023-11-16T22:12:53.730Z,0.80
2023-11-16T22:15:20.704Z,0.90
2023-11-16T22:17:49.662Z,1.37
2023-11-16T22:20:17.926Z,1.13
2023-11-16T22:22:47.363Z,1.00
2023-11-16T22:25:14.458Z,0.90
2023-11-16T22:27:43.819Z,0.90
2023-11-16T22:30:12.328Z,0.90
2023-11-16T22:32:40.670Z,1.40
2023-11-16T22:35:08.147Z,1.00
2023-11-16T22:37:36.894Z,0.70
2023-11-16T22:40:05.129Z,0.90
2023-11-16T22:42:36.477Z,1.17
2023-11-16T22:45:04.269Z,1.23
2023-11-16T22:47:31.383Z,1.10
2023-11-16T22:49:57.911Z,0.80
2023-11-16T22:52:24.424Z,0.90
2023-11-16T22:54:50.871Z,1.40
2023-11-16T22:57:17.376Z,0.83
2023-11-16T22:59:43.909Z,0.70
2023-11-16T23:02:10.394Z,0.60
2023-11-16T23:04:38.171Z,0.80
2023-11-16T23:07:10.648Z,0.70
2023-11-16T23:09:38.030Z,0.70
2023-11-16T23:12:08.085Z,0.50
2023-11-16T23:14:35.492Z,0.40
2023-11-16T23:17:02.005Z,0.50
2023-11-16T23:19:28.902Z,0.60
2023-11-16T23:21:55.402Z,0.50
2023-11-16T23:24:21.901Z,0.60
2023-11-16T23:26:51.911Z,0.50
2023-11-16T23:29:18.348Z,0.50
2023-11-16T23:31:44.931Z,0.50
2023-11-16T23:34:11.772Z,0.40
2023-11-16T23:36:38.261Z,0.50
2023-11-16T23:39:04.801Z,0.50
2023-11-16T23:41:31.358Z,0.50
2023-11-16T23:43:57.884Z,0.47
2023-11-16T23:46:24.419Z,0.63
2023-11-16T23:48:51.022Z,0.60
2023-11-16T23:51:21.653Z,0.50
2023-11-16T23:53:48.731Z,0.60
2023-11-16T23:56:15.291Z,0.53
2023-11-16T23:58:41.808Z,0.50
